Time;durP1;ratioP1;P1;durP2;ratioP2;P2;SDS_P1;SDS_P2;PMS_P1;PMS_P2;Temp;Humidity;BMP_temperature;BMP_pressure;BME280_temperature;BME280_humidity;BME280_pressure;Samples;Min_cycle;Max_cycle;Signal;HPM_P1;HPM_P2
2022/10/03 00:01:35;;;;;;;37.70;15.93;;;;;;;;;;5083210;28;20020;-71
2022/10/03 00:04:00;;;;;;;24.08;12.75;;;;;;;;;;5081851;28;20716;-72
2022/10/03 00:06:31;;;;;;;59.90;25.25;;;;;;;;;;5073043;28;20511;-71
2022/10/03 00:09:00;;;;;;;43.13;20.70;;;;;;;;;;5081730;28;20040;-72
2022/10/03 00:11:38;;;;;;;34.53;20.83;;;;;;;;;;5082592;28;20471;-72
2022/10/03 00:14:03;;;;;;;23.88;15.27;;;;;;;;;;5073576;28;20020;-74
2022/10/03 00:16:40;;;;;;;24.02;15.23;;;;;;;;;;5072816;28;20085;-74
2022/10/03 00:19:05;;;;;;;21.25;14.02;;;;;;;;;;5078764;28;20047;-72
2022/10/03 00:21:41;;;;;;;20.38;12.98;;;;;;;;;;5082689;28;20024;-75
2022/10/03 00:24:13;;;;;;;22.48;14.00;;;;;;;;;;5082423;28;20446;-75
2022/10/03 00:26:58;;;;;;;25.83;16.35;;;;;;;;;;5071091;28;20020;-71
2022/10/03 00:29:24;;;;;;;37.78;22.30;;;;;;;;;;5066159;28;20062;-74
2022/10/03 00:32:08;;;;;;;34.35;21.55;;;;;;;;;;5076501;28;20028;-73
2022/10/03 00:34:45;;;;;;;23.40;14.68;;;;;;;;;;5081232;28;20032;-72
2022/10/03 00:37:23;;;;;;;23.00;13.23;;;;;;;;;;5082297;28;20042;-72
2022/10/03 00:40:10;;;;;;;28.40;17.23;;;;;;;;;;5082127;28;20097;-72
2022/10/03 00:42:44;;;;;;;27.15;17.60;;;;;;;;;;5073352;28;20044;-73
2022/10/03 00:45:12;;;;;;;21.50;14.10;;;;;;;;;;5079447;28;20120;-73
2022/10/03 00:47:56;;;;;;;26.75;15.85;;;;;;;;;;5072834;28;20032;-72
2022/10/03 00:50:22;;;;;;;24.50;13.82;;;;;;;;;;5081701;28;20106;-72
2022/10/03 00:53:06;;;;;;;26.50;15.30;;;;;;;;;;5081671;28;20107;-73
2022/10/03 00:55:31;;;;;;;22.92;14.50;;;;;;;;;;5081747;28;20028;-72
2022/10/03 00:58:10;;;;;;;20.17;13.70;;;;;;;;;;5079334;28;20361;-72
2022/10/03 01:00:35;;;;;;;21.08;12.57;;;;;;;;;;5079148;28;20036;-73
2022/10/03 01:03:19;;;;;;;18.77;12.75;;;;;;;;;;5081030;28;20043;-73
2022/10/03 01:05:45;;;;;;;20.45;12.43;;;;;;;;;;5069516;28;20477;-73
2022/10/03 01:08:16;;;;;;;13.02;8.40;;;;;;;;;;5071790;28;20020;-72
2022/10/03 01:11:01;;;;;;;17.83;8.40;;;;;;;;;;5080999;28;20054;-75
2022/10/03 01:13:26;;;;;;;12.05;6.63;;;;;;;;;;5074016;28;20024;-73
2022/10/03 01:16:09;;;;;;;13.73;6.95;;;;;;;;;;5072466;28;20046;-77
2022/10/03 01:18:36;;;;;;;8.75;5.40;;;;;;;;;;5075655;28;20411;-73
2022/10/03 01:21:16;;;;;;;8.00;5.28;;;;;;;;;;5081769;28;20047;-75
2022/10/03 01:23:42;;;;;;;5.50;3.75;;;;;;;;;;5081453;28;20396;-73
2022/10/03 01:26:07;;;;;;;3.10;2.67;;;;;;;;;;5080885;28;20052;-72
2022/10/03 01:31:23;;;;;;;17.02;9.57;;;;;;;;;;5079328;28;20055;-72
2022/10/03 01:34:04;;;;;;;20.42;10.10;;;;;;;;;;5080460;28;20446;-72
2022/10/03 01:36:39;;;;;;;20.33;9.68;;;;;;;;;;5071175;28;20039;-72
2022/10/03 01:39:04;;;;;;;17.45;8.75;;;;;;;;;;5080277;28;20077;-71
2022/10/03 01:41:48;;;;;;;33.85;14.68;;;;;;;;;;5081269;28;20066;-75
2022/10/03 01:44:16;;;;;;;27.88;13.63;;;;;;;;;;5077155;28;20031;-74
2022/10/03 01:46:50;;;;;;;27.23;13.95;;;;;;;;;;5072876;28;20455;-72
2022/10/03 01:49:27;;;;;;;14.95;8.13;;;;;;;;;;5080566;28;20028;-75
2022/10/03 01:52:03;;;;;;;13.38;7.97;;;;;;;;;;5070371;28;20034;-73
2022/10/03 01:54:35;;;;;;;17.65;10.68;;;;;;;;;;5077404;28;20020;-75
2022/10/03 01:57:16;;;;;;;18.00;10.27;;;;;;;;;;5074704;28;20119;-72
2022/10/03 01:59:45;;;;;;;15.63;10.18;;;;;;;;;;5079664;28;20038;-72
2022/10/03 02:02:29;;;;;;;14.40;8.63;;;;;;;;;;5080397;28;20028;-73
2022/10/03 02:05:00;;;;;;;13.85;9.35;;;;;;;;;;5074159;28;20027;-71
2022/10/03 02:07:34;;;;;;;14.30;8.77;;;;;;;;;;5072027;28;20115;-77
2022/10/03 02:10:35;;;;;;;9.55;6.57;;;;;;;;;;5080256;28;20047;-72
2022/10/03 02:13:06;;;;;;;11.52;5.97;;;;;;;;;;5018849;28;20436;-75
2022/10/03 02:15:53;;;;;;;7.57;5.45;;;;;;;;;;4998711;28;20037;-73
2022/10/03 02:18:33;;;;;;;9.77;6.35;;;;;;;;;;5002839;28;20041;-75
2022/10/03 02:21:08;;;;;;;12.80;7.18;;;;;;;;;;5009408;28;20046;-72
2022/10/03 02:23:33;;;;;;;24.52;13.57;;;;;;;;;;5016091;28;20029;-71
2022/10/03 02:26:13;;;;;;;24.10;14.65;;;;;;;;;;5017451;28;20087;-71
2022/10/03 02:28:49;;;;;;;14.05;8.40;;;;;;;;;;5018051;28;20048;-71
2022/10/03 02:31:32;;;;;;;11.77;6.85;;;;;;;;;;5018928;28;20052;-72
2022/10/03 02:34:03;;;;;;;9.45;5.95;;;;;;;;;;5019075;28;20042;-71
2022/10/03 02:36:37;;;;;;;3.50;2.70;;;;;;;;;;5012224;28;20196;-71
2022/10/03 02:39:38;;;;;;;4.57;2.10;;;;;;;;;;5016310;28;20091;-72
2022/10/03 02:42:25;;;;;;;2.70;1.73;;;;;;;;;;4979954;28;20130;-74
2022/10/03 02:45:08;;;;;;;3.92;2.40;;;;;;;;;;4981317;28;20069;-72
2022/10/03 02:47:40;;;;;;;13.27;7.60;;;;;;;;;;5032958;28;20451;-72
2022/10/03 02:50:14;;;;;;;21.13;12.60;;;;;;;;;;5061495;28;20101;-71
2022/10/03 02:52:59;;;;;;;15.07;10.15;;;;;;;;;;5046897;28;20033;-72
2022/10/03 02:55:39;;;;;;;7.85;4.20;;;;;;;;;;5053806;28;20028;-72
2022/10/03 02:58:17;;;;;;;4.93;2.90;;;;;;;;;;5065676;28;20102;-71
2022/10/03 03:00:54;;;;;;;5.53;2.78;;;;;;;;;;5065789;28;20036;-71
2022/10/03 03:03:38;;;;;;;7.22;5.47;;;;;;;;;;5065126;28;20047;-73
2022/10/03 03:06:22;;;;;;;20.80;14.70;;;;;;;;;;5067054;28;20064;-71
2022/10/03 03:08:57;;;;;;;19.95;13.95;;;;;;;;;;5059634;28;20125;-73
2022/10/03 03:11:28;;;;;;;16.70;12.65;;;;;;;;;;5059317;28;20033;-71
2022/10/03 03:14:09;;;;;;;13.55;9.25;;;;;;;;;;5065837;28;20472;-71
2022/10/03 03:16:37;;;;;;;11.93;7.30;;;;;;;;;;5075598;28;20036;-72
2022/10/03 03:19:15;;;;;;;10.52;6.60;;;;;;;;;;5077126;28;20032;-73
2022/10/03 03:21:56;;;;;;;9.98;6.68;;;;;;;;;;5062463;28;20721;-75
2022/10/03 03:24:44;;;;;;;9.98;7.10;;;;;;;;;;5064768;28;20028;-76
2022/10/03 03:27:15;;;;;;;8.80;5.90;;;;;;;;;;5067003;28;20020;-73
2022/10/03 03:29:48;;;;;;;16.75;4.45;;;;;;;;;;5066543;28;20363;-72
2022/10/03 03:32:19;;;;;;;5.05;3.88;;;;;;;;;;5075034;28;20090;-70
2022/10/03 03:34:55;;;;;;;6.38;4.28;;;;;;;;;;5078081;28;20024;-74
2022/10/03 03:37:33;;;;;;;5.35;3.30;;;;;;;;;;5079103;28;20024;-71
2022/10/03 03:40:09;;;;;;;7.70;4.28;;;;;;;;;;5067743;28;20032;-74
2022/10/03 03:42:35;;;;;;;4.95;4.18;;;;;;;;;;5064521;28;20020;-70
2022/10/03 03:45:12;;;;;;;6.00;3.40;;;;;;;;;;5065218;28;20150;-75
2022/10/03 03:47:42;;;;;;;4.72;3.40;;;;;;;;;;5074263;28;20072;-74
2022/10/03 03:50:11;;;;;;;67.45;60.10;;;;;;;;;;5078128;28;20036;-73
2022/10/03 03:52:45;;;;;;;19.85;17.75;;;;;;;;;;5078721;28;20414;-70
2022/10/03 03:55:14;;;;;;;13.80;12.27;;;;;;;;;;5069804;28;20040;-69
2022/10/03 03:57:48;;;;;;;9.50;8.18;;;;;;;;;;5076639;28;20081;-73
2022/10/03 04:00:17;;;;;;;10.10;6.80;;;;;;;;;;5078887;28;20031;-71
2022/10/03 04:02:51;;;;;;;8.35;5.72;;;;;;;;;;5073993;28;20315;-72
2022/10/03 04:05:20;;;;;;;10.38;5.90;;;;;;;;;;5066974;28;20031;-74
2022/10/03 04:07:49;;;;;;;9.18;7.28;;;;;;;;;;5072528;28;20462;-70
2022/10/03 04:10:23;;;;;;;9.73;6.82;;;;;;;;;;5078358;28;20020;-71
2022/10/03 04:12:54;;;;;;;9.70;6.53;;;;;;;;;;5075916;28;20062;-71
2022/10/03 04:15:32;;;;;;;20.48;13.30;;;;;;;;;;5078042;28;20103;-70
2022/10/03 04:18:57;;;;;;;8.73;7.20;;;;;;;;;;5070391;28;20032;-74
2022/10/03 04:20:58;;;;;;;5.82;4.82;;;;;;;;;;5062460;28;20059;-71
2022/10/03 04:23:27;;;;;;;4.13;3.72;;;;;;;;;;5068841;28;20027;-72
2022/10/03 04:26:06;;;;;;;5.30;4.20;;;;;;;;;;5069110;28;20043;-72
2022/10/03 04:28:43;;;;;;;10.45;6.78;;;;;;;;;;5067622;28;20028;-76
2022/10/03 04:31:09;;;;;;;5.70;5.05;;;;;;;;;;5069975;28;20032;-72
2022/10/03 04:33:34;;;;;;;10.02;7.40;;;;;;;;;;5079515;28;20440;-72
2022/10/03 04:36:05;;;;;;;5.80;4.70;;;;;;;;;;5080437;28;20987;-75
2022/10/03 04:38:49;;;;;;;7.18;5.40;;;;;;;;;;5068784;28;20796;-72
2022/10/03 04:41:27;;;;;;;11.32;6.45;;;;;;;;;;5066308;28;20336;-71
2022/10/03 04:44:11;;;;;;;7.85;5.88;;;;;;;;;;5074098;28;20706;-71
2022/10/03 04:46:39;;;;;;;13.90;10.07;;;;;;;;;;5078169;28;20077;-72
2022/10/03 04:49:25;;;;;;;9.02;8.10;;;;;;;;;;5075206;28;20042;-75
2022/10/03 04:51:53;;;;;;;7.72;6.82;;;;;;;;;;5048784;28;20071;-72
2022/10/03 04:54:38;;;;;;;10.48;6.68;;;;;;;;;;5074233;28;20055;-71
2022/10/03 04:57:22;;;;;;;7.05;6.18;;;;;;;;;;5073674;28;20044;-71
2022/10/03 05:00:08;;;;;;;6.75;6.03;;;;;;;;;;5067860;28;20135;-70
2022/10/03 05:02:33;;;;;;;7.28;6.10;;;;;;;;;;5073427;28;20020;-74
2022/10/03 05:05:18;;;;;;;7.97;6.32;;;;;;;;;;5070097;28;20077;-72
2022/10/03 05:08:03;;;;;;;8.82;7.47;;;;;;;;;;5069170;28;20031;-73
2022/10/03 05:10:43;;;;;;;7.78;6.28;;;;;;;;;;5080108;28;20353;-72
2022/10/03 05:13:21;;;;;;;9.20;7.13;;;;;;;;;;5080414;28;20348;-72
2022/10/03 05:15:54;;;;;;;14.27;9.30;;;;;;;;;;5080835;28;20122;-72
2022/10/03 05:18:24;;;;;;;15.55;10.25;;;;;;;;;;5081056;28;20032;-74
2022/10/03 05:20:49;;;;;;;;;;;;;;;;;;5080757;28;20126;-74
2022/10/03 05:23:31;;;;;;;10.05;7.47;;;;;;;;;;5082356;28;20015;-75
2022/10/03 05:26:22;;;;;;;23.92;21.30;;;;;;;;;;5081507;28;20073;-71
2022/10/03 05:29:06;;;;;;;35.70;29.23;;;;;;;;;;5080955;28;20085;-72
2022/10/03 05:31:34;;;;;;;37.63;30.25;;;;;;;;;;5082172;28;20028;-73
2022/10/03 05:34:02;;;;;;;27.25;21.98;;;;;;;;;;5080428;28;20029;-76
2022/10/03 05:36:28;;;;;;;9.18;7.78;;;;;;;;;;5080236;28;20042;-72
2022/10/03 05:39:12;;;;;;;7.68;5.80;;;;;;;;;;5080974;28;20019;-76
2022/10/03 05:41:39;;;;;;;16.88;11.63;;;;;;;;;;5080523;28;20020;-77
2022/10/03 05:44:04;;;;;;;10.25;8.82;;;;;;;;;;5080594;28;20039;-73
2022/10/03 05:46:45;;;;;;;8.68;6.70;;;;;;;;;;5081535;28;20044;-74
2022/10/03 05:49:15;;;;;;;9.38;7.97;;;;;;;;;;5081959;28;20070;-75
2022/10/03 05:52:08;;;;;;;13.73;10.50;;;;;;;;;;5081734;28;20124;-72
2022/10/03 05:54:52;;;;;;;9.35;8.45;;;;;;;;;;5081010;28;20024;-72
2022/10/03 05:57:55;;;;;;;11.70;8.75;;;;;;;;;;5079744;28;20370;-74
2022/10/03 06:00:24;;;;;;;33.70;26.67;;;;;;;;;;5051514;28;20063;-75
2022/10/03 06:02:50;;;;;;;27.40;20.20;;;;;;;;;;5081365;28;20016;-75
2022/10/03 06:05:16;;;;;;;31.25;21.95;;;;;;;;;;5080662;28;20031;-77
2022/10/03 06:07:44;;;;;;;66.57;47.10;;;;;;;;;;5081470;28;20138;-75
2022/10/03 06:10:13;;;;;;;225.60;140.95;;;;;;;;;;5081415;28;20024;-74
2022/10/03 06:12:47;;;;;;;38.43;26.97;;;;;;;;;;5081846;28;20089;-74
2022/10/03 06:15:18;;;;;;;18.02;13.18;;;;;;;;;;5081364;28;20038;-74
2022/10/03 06:18:01;;;;;;;16.30;13.27;;;;;;;;;;5081329;28;20031;-76
2022/10/03 06:20:59;;;;;;;155.95;106.65;;;;;;;;;;5080094;28;20024;-74
2022/10/03 06:23:24;;;;;;;76.03;48.33;;;;;;;;;;5053557;28;20040;-74
2022/10/03 06:25:59;;;;;;;110.97;62.13;;;;;;;;;;5081189;28;20423;-74
2022/10/03 06:28:43;;;;;;;73.13;49.95;;;;;;;;;;5080878;28;20118;-75
2022/10/03 06:31:10;;;;;;;27.27;17.48;;;;;;;;;;5080890;28;20035;-78
2022/10/03 06:33:50;;;;;;;31.83;19.20;;;;;;;;;;5081201;28;20023;-74
2022/10/03 06:36:25;;;;;;;30.85;25.30;;;;;;;;;;5080143;28;20415;-74
2022/10/03 06:39:09;;;;;;;37.63;28.00;;;;;;;;;;5081688;28;20039;-77
2022/10/03 06:42:05;;;;;;;30.20;23.15;;;;;;;;;;5079742;28;20020;-77
2022/10/03 06:44:53;;;;;;;25.38;21.60;;;;;;;;;;5066779;28;20064;-74
2022/10/03 06:47:30;;;;;;;20.58;18.25;;;;;;;;;;5080634;28;20040;-75
2022/10/03 06:50:02;;;;;;;36.15;32.15;;;;;;;;;;5080141;28;20040;-75
2022/10/03 06:52:30;;;;;;;31.60;28.13;;;;;;;;;;5081014;28;20451;-74
2022/10/03 06:55:03;;;;;;;26.42;22.92;;;;;;;;;;5079605;28;20036;-74
2022/10/03 06:57:43;;;;;;;18.67;16.67;;;;;;;;;;5076937;28;20032;-77
2022/10/03 07:00:08;;;;;;;;;;;;;;;;;;5081363;28;20375;-74
2022/10/03 07:02:33;;;;;;;50.50;45.13;;;;;;;;;;5079828;28;19964;-74
2022/10/03 07:05:08;;;;;;;13.90;11.07;;;;;;;;;;5080683;28;20158;-74
2022/10/03 07:07:52;;;;;;;12.88;11.20;;;;;;;;;;5080645;28;20043;-74
2022/10/03 07:10:25;;;;;;;27.05;21.25;;;;;;;;;;5080005;28;20081;-74
2022/10/03 07:12:59;;;;;;;31.73;26.15;;;;;;;;;;5078964;28;20024;-75
2022/10/03 07:15:32;;;;;;;29.20;22.60;;;;;;;;;;5072907;28;20347;-74
2022/10/03 07:18:07;;;;;;;42.25;36.78;;;;;;;;;;5079269;28;20407;-74
2022/10/03 07:20:51;;;;;;;35.75;31.88;;;;;;;;;;5080808;28;20039;-74
2022/10/03 07:23:16;;;;;;;18.23;14.82;;;;;;;;;;5080380;28;20028;-74
2022/10/03 07:25:51;;;;;;;29.40;26.05;;;;;;;;;;5081086;28;20038;-74
2022/10/03 07:28:35;;;;;;;27.58;16.63;;;;;;;;;;5080222;28;20040;-75
2022/10/03 07:31:07;;;;;;;40.88;34.17;;;;;;;;;;5078188;28;20028;-74
2022/10/03 07:33:38;;;;;;;31.60;23.17;;;;;;;;;;5080524;28;20454;-73
2022/10/03 07:38:59;;;;;;;14.18;11.93;;;;;;;;;;5080196;28;20101;-76
2022/10/03 07:41:35;;;;;;;12.80;10.60;;;;;;;;;;5080083;28;20024;-73
2022/10/03 07:44:06;;;;;;;10.65;8.18;;;;;;;;;;5080990;28;20020;-73
2022/10/03 07:46:45;;;;;;;6.57;5.93;;;;;;;;;;5079624;28;20087;-76
2022/10/03 07:49:24;;;;;;;3.60;3.13;;;;;;;;;;5079998;28;20040;-74
2022/10/03 07:52:09;;;;;;;5.80;3.85;;;;;;;;;;5080127;28;20046;-73
2022/10/03 07:54:53;;;;;;;5.80;4.30;;;;;;;;;;5083591;28;20024;-75
2022/10/03 07:57:37;;;;;;;4.90;4.40;;;;;;;;;;5084627;28;20032;-75
2022/10/03 08:00:14;;;;;;;6.45;4.30;;;;;;;;;;5083981;28;20031;-73
2022/10/03 08:02:43;;;;;;;3.90;3.20;;;;;;;;;;5083558;28;20059;-73
2022/10/03 08:05:20;;;;;;;4.53;3.90;;;;;;;;;;5083329;28;21122;-73
2022/10/03 08:07:57;;;;;;;6.22;4.50;;;;;;;;;;5083466;28;20035;-74
2022/10/03 08:10:25;;;;;;;6.38;4.65;;;;;;;;;;5083165;28;20107;-72
2022/10/03 08:13:09;;;;;;;4.10;2.97;;;;;;;;;;5082834;28;20445;-74
2022/10/03 08:15:53;;;;;;;17.95;15.80;;;;;;;;;;5082403;28;20024;-74
2022/10/03 08:18:27;;;;;;;3.85;3.40;;;;;;;;;;5084059;28;20028;-75
2022/10/03 08:21:22;;;;;;;4.70;3.67;;;;;;;;;;5083633;28;20066;-73
2022/10/03 08:23:56;;;;;;;5.97;4.38;;;;;;;;;;5041181;28;20368;-74
2022/10/03 08:26:31;;;;;;;6.07;4.65;;;;;;;;;;5041376;28;20041;-72
2022/10/03 08:29:11;;;;;;;6.47;4.22;;;;;;;;;;5041054;28;20049;-73
2022/10/03 08:31:51;;;;;;;5.68;4.00;;;;;;;;;;5042010;28;20153;-72
2022/10/03 08:34:35;;;;;;;9.02;5.93;;;;;;;;;;5041207;28;20044;-73
2022/10/03 08:37:19;;;;;;;7.53;4.88;;;;;;;;;;5041948;28;20121;-76
2022/10/03 08:39:54;;;;;;;3.70;3.30;;;;;;;;;;5041115;28;20455;-73
2022/10/03 08:42:31;;;;;;;5.18;4.35;;;;;;;;;;5041835;28;20040;-74
2022/10/03 08:45:15;;;;;;;5.05;3.55;;;;;;;;;;5041149;28;20045;-73
2022/10/03 08:47:40;;;;;;;6.32;5.72;;;;;;;;;;5031352;28;20028;-77
2022/10/03 08:50:19;;;;;;;4.93;4.43;;;;;;;;;;5041881;28;20328;-73
2022/10/03 08:52:44;;;;;;;6.50;5.38;;;;;;;;;;5041632;28;20052;-73
2022/10/03 08:55:36;;;;;;;7.90;6.65;;;;;;;;;;5041872;28;20357;-73
2022/10/03 08:58:01;;;;;;;4.53;4.13;;;;;;;;;;5030371;28;20044;-75
2022/10/03 09:00:43;;;;;;;6.00;5.40;;;;;;;;;;5062805;28;20371;-73
2022/10/03 09:03:12;;;;;;;6.10;5.53;;;;;;;;;;5083461;28;20012;-72
2022/10/03 09:05:49;;;;;;;4.35;4.00;;;;;;;;;;5080976;28;20032;-75
2022/10/03 09:08:18;;;;;;;7.28;6.55;;;;;;;;;;5082245;28;20031;-73
2022/10/03 09:10:58;;;;;;;7.45;6.75;;;;;;;;;;5081659;28;20020;-72
2022/10/03 09:13:30;;;;;;;10.02;7.97;;;;;;;;;;5082446;28;20064;-74
2022/10/03 09:16:10;;;;;;;8.70;7.75;;;;;;;;;;5083005;28;20028;-75
2022/10/03 09:18:42;;;;;;;6.53;5.85;;;;;;;;;;5082605;28;20039;-73
2022/10/03 09:21:26;;;;;;;7.97;7.18;;;;;;;;;;5083077;28;20045;-73
2022/10/03 09:23:59;;;;;;;11.02;9.70;;;;;;;;;;5081349;28;20056;-76
2022/10/03 09:26:43;;;;;;;7.05;6.43;;;;;;;;;;5080048;28;20336;-71
2022/10/03 09:29:17;;;;;;;9.45;8.48;;;;;;;;;;5082251;28;20125;-73
2022/10/03 09:31:55;;;;;;;6.95;6.35;;;;;;;;;;5083132;28;20127;-76
2022/10/03 09:34:39;;;;;;;6.38;5.88;;;;;;;;;;5081865;28;20054;-74
2022/10/03 09:37:19;;;;;;;7.53;6.72;;;;;;;;;;5082721;28;20056;-73
2022/10/03 09:40:07;;;;;;;5.95;5.45;;;;;;;;;;5081396;28;20039;-72
2022/10/03 09:42:40;;;;;;;5.80;5.40;;;;;;;;;;5082378;28;20081;-72
2022/10/03 09:45:09;;;;;;;6.60;6.00;;;;;;;;;;5080135;28;20504;-76
2022/10/03 09:47:41;;;;;;;6.47;5.93;;;;;;;;;;5082016;28;20032;-75
2022/10/03 09:50:22;;;;;;;5.65;5.15;;;;;;;;;;5081978;28;20039;-73
2022/10/03 09:53:06;;;;;;;5.78;5.28;;;;;;;;;;5082745;28;20078;-73
2022/10/03 09:55:40;;;;;;;4.78;4.40;;;;;;;;;;5081949;28;20063;-74
2022/10/03 09:58:18;;;;;;;5.35;4.95;;;;;;;;;;5079721;28;20031;-73
2022/10/03 10:01:13;;;;;;;8.40;7.60;;;;;;;;;;5081483;28;20028;-73
2022/10/03 10:03:57;;;;;;;14.07;12.57;;;;;;;;;;5071980;28;20036;-74
2022/10/03 10:06:28;;;;;;;10.30;9.20;;;;;;;;;;5080972;28;20040;-74
2022/10/03 10:09:23;;;;;;;7.05;6.38;;;;;;;;;;5080930;28;20020;-73
2022/10/03 10:12:06;;;;;;;9.07;7.10;;;;;;;;;;5038883;28;20110;-72
2022/10/03 10:14:50;;;;;;;10.80;9.70;;;;;;;;;;5037419;28;20029;-73
2022/10/03 10:17:33;;;;;;;5.75;5.32;;;;;;;;;;5037871;28;20051;-77
2022/10/03 10:20:11;;;;;;;7.45;6.75;;;;;;;;;;5038723;28;20111;-74
2022/10/03 10:22:46;;;;;;;7.97;7.15;;;;;;;;;;5038547;28;20045;-75
2022/10/03 10:25:16;;;;;;;6.80;6.20;;;;;;;;;;5038542;28;20035;-77
2022/10/03 10:28:01;;;;;;;11.35;9.27;;;;;;;;;;5038321;28;20032;-72
2022/10/03 10:30:28;;;;;;;8.80;5.65;;;;;;;;;;5038983;28;20033;-76
2022/10/03 10:33:06;;;;;;;6.97;5.47;;;;;;;;;;5038736;28;20043;-73
2022/10/03 10:35:37;;;;;;;5.53;4.75;;;;;;;;;;5039116;28;20040;-73
2022/10/03 10:38:24;;;;;;;4.82;4.28;;;;;;;;;;5038045;28;20568;-72
2022/10/03 10:41:10;;;;;;;5.57;4.85;;;;;;;;;;5039134;28;20800;-75
2022/10/03 10:43:38;;;;;;;7.30;6.40;;;;;;;;;;5027199;28;20104;-74
2022/10/03 10:46:23;;;;;;;9.20;7.47;;;;;;;;;;5021568;28;20122;-74
2022/10/03 10:49:03;;;;;;;8.60;6.25;;;;;;;;;;5070361;28;20473;-73
2022/10/03 10:51:58;;;;;;;14.63;11.18;;;;;;;;;;5081610;28;20089;-73
2022/10/03 10:54:24;;;;;;;9.38;8.27;;;;;;;;;;5053132;28;20068;-73
2022/10/03 10:56:49;;;;;;;7.18;6.40;;;;;;;;;;5049930;28;20506;-73
2022/10/03 10:59:17;;;;;;;8.02;6.80;;;;;;;;;;5049287;28;20367;-74
2022/10/03 11:01:51;;;;;;;10.85;9.68;;;;;;;;;;5052259;28;20027;-75
2022/10/03 11:04:35;;;;;;;7.03;6.32;;;;;;;;;;5049988;28;20556;-76
2022/10/03 11:07:10;;;;;;;10.73;8.77;;;;;;;;;;5050228;28;20037;-74
2022/10/03 11:09:54;;;;;;;5.03;4.32;;;;;;;;;;5051535;28;20041;-72
2022/10/03 11:12:39;;;;;;;4.70;4.25;;;;;;;;;;5048345;28;20044;-74
2022/10/03 11:15:17;;;;;;;8.32;5.50;;;;;;;;;;5039329;28;20033;-71
2022/10/03 11:18:11;;;;;;;4.57;3.97;;;;;;;;;;5050368;28;20041;-77
2022/10/03 11:20:45;;;;;;;5.18;4.70;;;;;;;;;;5047389;28;20182;-72
2022/10/03 11:23:49;;;;;;;9.57;8.02;;;;;;;;;;5047113;28;20867;-72
2022/10/03 11:26:26;;;;;;;6.28;5.68;;;;;;;;;;5012714;28;20111;-73
2022/10/03 11:29:10;;;;;;;5.15;4.65;;;;;;;;;;5053796;28;20047;-73
2022/10/03 11:31:39;;;;;;;4.65;3.70;;;;;;;;;;5079368;28;20044;-72
2022/10/03 11:34:16;;;;;;;3.97;3.55;;;;;;;;;;5083894;28;20038;-76
2022/10/03 11:36:42;;;;;;;4.00;3.63;;;;;;;;;;5085559;28;20413;-72
2022/10/03 11:39:26;;;;;;;6.20;5.00;;;;;;;;;;5084028;28;20760;-71
2022/10/03 11:41:54;;;;;;;4.45;4.03;;;;;;;;;;5083725;28;20108;-74
2022/10/03 11:44:52;;;;;;;8.15;4.72;;;;;;;;;;5085360;28;20032;-74
2022/10/03 11:47:17;;;;;;;4.70;3.25;;;;;;;;;;5034959;28;20049;-72
2022/10/03 11:49:51;;;;;;;5.28;4.50;;;;;;;;;;5030599;28;20036;-72
2022/10/03 11:52:17;;;;;;;4.63;3.53;;;;;;;;;;5036177;28;20047;-72
2022/10/03 11:54:44;;;;;;;5.68;5.13;;;;;;;;;;5036407;28;20025;-73
2022/10/03 11:57:35;;;;;;;5.20;4.22;;;;;;;;;;5034021;28;20106;-72
2022/10/03 12:00:04;;;;;;;5.03;4.38;;;;;;;;;;5028644;28;20041;-73
2022/10/03 12:02:39;;;;;;;7.70;4.23;;;;;;;;;;5035453;28;20083;-72
2022/10/03 12:05:22;;;;;;;6.90;5.53;;;;;;;;;;5037115;28;20025;-74
2022/10/03 12:10:34;;;;;;;6.05;4.40;;;;;;;;;;5032004;28;20483;-73
2022/10/03 12:13:03;;;;;;;3.95;3.60;;;;;;;;;;5034649;28;20036;-73
2022/10/03 12:15:33;;;;;;;4.90;4.40;;;;;;;;;;5034030;28;20030;-73
2022/10/03 12:18:04;;;;;;;7.57;5.10;;;;;;;;;;5036824;28;20401;-72
2022/10/03 12:20:47;;;;;;;6.68;4.90;;;;;;;;;;5031863;28;20029;-73
2022/10/03 12:23:28;;;;;;;10.07;6.00;;;;;;;;;;5066921;28;20082;-72
2022/10/03 12:25:54;;;;;;;11.00;7.15;;;;;;;;;;5083108;28;20046;-76
2022/10/03 12:28:23;;;;;;;9.35;7.38;;;;;;;;;;5082887;28;20067;-79
2022/10/03 12:30:59;;;;;;;13.02;10.52;;;;;;;;;;5083415;28;20082;-77
2022/10/03 12:33:42;;;;;;;10.25;7.28;;;;;;;;;;5083549;28;20020;-77
2022/10/03 12:36:14;;;;;;;13.63;9.52;;;;;;;;;;5082241;28;20039;-74
2022/10/03 12:38:40;;;;;;;24.95;18.58;;;;;;;;;;5081891;28;20030;-77
2022/10/03 12:41:11;;;;;;;12.25;8.40;;;;;;;;;;5083264;28;20074;-75
2022/10/03 12:43:39;;;;;;;16.55;13.00;;;;;;;;;;5082866;28;20031;-74
2022/10/03 12:46:14;;;;;;;15.05;10.02;;;;;;;;;;5082876;28;20044;-72
2022/10/03 12:48:41;;;;;;;27.77;20.98;;;;;;;;;;5081694;28;20790;-72
2022/10/03 12:51:07;;;;;;;21.83;16.70;;;;;;;;;;5081810;28;20024;-76
2022/10/03 12:53:34;;;;;;;24.70;17.05;;;;;;;;;;5081323;28;20035;-73
2022/10/03 12:55:59;;;;;;;24.33;14.77;;;;;;;;;;5082931;28;20024;-72
2022/10/03 12:58:45;;;;;;;9.77;7.85;;;;;;;;;;5081570;28;20028;-72
2022/10/03 13:01:30;;;;;;;13.20;8.07;;;;;;;;;;5082136;28;20161;-76
2022/10/03 13:04:02;;;;;;;9.88;8.00;;;;;;;;;;5081952;28;20016;-73
2022/10/03 13:06:28;;;;;;;9.82;8.65;;;;;;;;;;5083360;28;20024;-73
2022/10/03 13:09:03;;;;;;;6.00;3.92;;;;;;;;;;5078630;28;20039;-76
2022/10/03 13:11:40;;;;;;;6.28;3.97;;;;;;;;;;5081467;28;20078;-73
2022/10/03 13:14:08;;;;;;;5.30;4.57;;;;;;;;;;5082170;28;20067;-74
2022/10/03 13:16:37;;;;;;;10.70;5.97;;;;;;;;;;5081366;28;20024;-76
2022/10/03 13:19:14;;;;;;;19.50;11.18;;;;;;;;;;5072495;28;20042;-73
2022/10/03 13:21:43;;;;;;;9.95;5.70;;;;;;;;;;5068054;28;20052;-74
2022/10/03 13:24:24;;;;;;;24.38;12.20;;;;;;;;;;5068907;28;20086;-73
2022/10/03 13:27:08;;;;;;;12.93;8.80;;;;;;;;;;5065760;28;20089;-74
2022/10/03 13:29:39;;;;;;;4.55;3.20;;;;;;;;;;5067824;28;20039;-73
2022/10/03 13:32:11;;;;;;;3.35;2.10;;;;;;;;;;5066990;28;20028;-73
2022/10/03 13:34:55;;;;;;;9.13;6.40;;;;;;;;;;5067996;28;20090;-74
2022/10/03 13:37:29;;;;;;;16.63;10.40;;;;;;;;;;5067483;28;20024;-74
2022/10/03 13:39:56;;;;;;;16.48;11.15;;;;;;;;;;5067166;28;20443;-74
2022/10/03 13:42:31;;;;;;;18.52;11.75;;;;;;;;;;5068343;28;20024;-73
2022/10/03 13:45:05;;;;;;;11.57;8.75;;;;;;;;;;5067336;28;20051;-73
2022/10/03 13:47:50;;;;;;;13.25;10.63;;;;;;;;;;5066602;28;20036;-72
2022/10/03 13:50:49;;;;;;;5.38;3.38;;;;;;;;;;5067713;28;20130;-74
2022/10/03 13:53:15;;;;;;;7.03;4.57;;;;;;;;;;5033682;28;20042;-74
2022/10/03 13:55:40;;;;;;;11.75;9.73;;;;;;;;;;5038490;28;20039;-74
2022/10/03 13:58:16;;;;;;;10.68;7.20;;;;;;;;;;5037530;28;20072;-73
2022/10/03 14:00:42;;;;;;;11.93;8.40;;;;;;;;;;5036635;28;20036;-72
2022/10/03 14:03:12;;;;;;;10.98;8.07;;;;;;;;;;5036445;28;20040;-72
2022/10/03 14:06:09;;;;;;;11.95;9.77;;;;;;;;;;5035090;28;20032;-73
2022/10/03 14:08:51;;;;;;;11.30;8.70;;;;;;;;;;5019789;28;20472;-72
2022/10/03 14:11:24;;;;;;;6.25;4.13;;;;;;;;;;5018481;28;20147;-75
2022/10/03 14:14:04;;;;;;;10.02;6.47;;;;;;;;;;5034784;28;20082;-74
2022/10/03 14:16:31;;;;;;;8.57;5.93;;;;;;;;;;5033195;28;20845;-74
2022/10/03 14:18:57;;;;;;;10.27;7.30;;;;;;;;;;5035547;28;21089;-73
2022/10/03 14:21:25;;;;;;;9.57;7.53;;;;;;;;;;5036843;28;20047;-73
2022/10/03 14:23:57;;;;;;;12.18;10.82;;;;;;;;;;5036279;28;20036;-73
2022/10/03 14:26:43;;;;;;;13.45;9.45;;;;;;;;;;5037217;28;20036;-73
2022/10/03 14:29:23;;;;;;;15.38;11.10;;;;;;;;;;5061697;28;20040;-73
2022/10/03 14:32:11;;;;;;;17.15;10.73;;;;;;;;;;5077529;28;20257;-73
2022/10/03 14:34:42;;;;;;;12.15;8.60;;;;;;;;;;5079452;28;20044;-76
2022/10/03 14:37:46;;;;;;;34.28;26.23;;;;;;;;;;5080379;28;20035;-73
2022/10/03 14:40:22;;;;;;;39.10;27.40;;;;;;;;;;5016080;28;20033;-73
2022/10/03 14:43:17;;;;;;;32.63;20.92;;;;;;;;;;5016702;28;20037;-74
2022/10/03 14:45:53;;;;;;;27.75;18.23;;;;;;;;;;5008815;28;20424;-73
2022/10/03 14:48:24;;;;;;;16.48;11.50;;;;;;;;;;5016218;28;20048;-73
2022/10/03 14:50:53;;;;;;;14.43;10.63;;;;;;;;;;5015579;28;20037;-73
2022/10/03 14:53:28;;;;;;;16.25;11.02;;;;;;;;;;5016796;28;20155;-73
2022/10/03 14:55:54;;;;;;;22.35;14.52;;;;;;;;;;5017331;28;20150;-73
2022/10/03 14:58:27;;;;;;;25.20;18.13;;;;;;;;;;5016918;28;20564;-75
2022/10/03 15:01:06;;;;;;;19.63;13.82;;;;;;;;;;5015317;28;20047;-74
2022/10/03 15:03:37;;;;;;;14.67;10.87;;;;;;;;;;5016078;28;20025;-73
2022/10/03 15:06:09;;;;;;;10.93;8.77;;;;;;;;;;5017377;28;20025;-72
2022/10/03 15:08:38;;;;;;;7.03;6.32;;;;;;;;;;5016316;28;20108;-73
2022/10/03 15:11:05;;;;;;;14.63;7.32;;;;;;;;;;5049958;28;20380;-72
2022/10/03 15:13:32;;;;;;;7.15;5.35;;;;;;;;;;5078740;28;20070;-73
2022/10/03 15:15:59;;;;;;;7.47;5.60;;;;;;;;;;5079120;28;20076;-75
2022/10/03 15:18:25;;;;;;;8.07;4.97;;;;;;;;;;5079053;28;20039;-73
2022/10/03 15:20:52;;;;;;;8.20;5.88;;;;;;;;;;5078772;28;20043;-74
2022/10/03 15:23:19;;;;;;;9.90;7.95;;;;;;;;;;5077812;28;20742;-75
2022/10/03 15:25:51;;;;;;;12.25;9.95;;;;;;;;;;5079254;28;20525;-73
2022/10/03 15:28:21;;;;;;;20.27;18.05;;;;;;;;;;5079092;28;20985;-72
2022/10/03 15:30:48;;;;;;;29.02;26.02;;;;;;;;;;5078027;28;20027;-73